INFORMACIÓN METAR y TAF
METAR FOR SARE
ADDS - METARS form results

(1740 UTC 23 July 2019)
Data provider http://aviationweather.gov/metar/data/
 
METAR text: SARE 231718Z 26006KT 5000 -TSRADZ BR SCT006 BKN013 FEW060CB 12/12 Q1015
Conditions at: SARE (RESISTENCIA AIRP, AR) observed 1718 UTC 23 July 2019
Temperature: 12.0°C (54°F)
Dewpoint: 12.0°C (54°F) [RH = 100%]
Pressure (altimeter): 29.97 inches Hg (1015.0 mb)
Winds: from the W (260 degrees) at 7 MPH (6 knots; 3.1 m/s)
Visibility: 3 miles ( 5 km)
Ceiling: 1300 feet AGL
Clouds: scattered clouds at 600 feet AGL
broken clouds at 1300 feet AGL
few clouds at 6000 feet AGL
Weather: -TSRA -TSDZ BR  (light rain associated with thunderstorm(s), unknown weather, mist)

METAR text: SARE 231700Z 22008KT 2000 -TSRADZ BR BKN006 FEW060CB 12/12 Q1015
Conditions at: SARE (RESISTENCIA AIRP, AR) observed 1700 UTC 23 July 2019
Temperature: 12.0°C (54°F)
Dewpoint: 12.0°C (54°F) [RH = 100%]
Pressure (altimeter): 29.97 inches Hg (1015.0 mb)
Winds: from the SW (220 degrees) at 9 MPH (8 knots; 4.1 m/s)
Visibility: 1.24 miles (2.00 km)
Ceiling: 600 feet AGL
Clouds: broken clouds at 600 feet AGL
few clouds at 6000 feet AGL
Weather: -TSRA -TSDZ BR  (light rain associated with thunderstorm(s), unknown weather, mist)

Forecast for: SARE (RESISTENCIA AIRP, AR)
Text: TAF SARE 231700Z 2318/2418 25010KT 1000 -TSRADZ BR BKN005 FEW050CB BKN050 TX12/2418Z TN08/2410Z
Forecast period: 1800 UTC 23 July 2019 to 0600 UTC 24 July 2019
Forecast type: FROM: standard forecast or significant change
Winds: from the WSW (250 degrees) at 12 MPH (10 knots; 5.1 m/s)
Visibility: 0.62 miles (1.00 km)
Ceiling: 500 feet AGL
Clouds: broken clouds at 500 feet AGL
few clouds at 5000 feet AGL
broken clouds at 5000 feet AGL
Weather: -TSRA -TSDZ BR  (light rain associated with thunderstorm(s), unknown weather, mist)
Text: BECMG 2406/2408 3000 +TSRA BKN005 FEW050CB OVC050
Forecast period: 0600 to 1800 UTC 24 July 2019
Forecast type: BECOMING: Conditions expected to become as follows by 0800 UTC 24 July 2019
Winds: from the WSW (250 degrees) at 12 MPH (10 knots; 5.1 m/s)
Visibility: 1.86 miles (2.99 km)
Ceiling: 500 feet AGL
Clouds: broken clouds at 500 feet AGL
few clouds at 5000 feet AGL
overcast cloud deck at 5000 feet AGL
Weather: +TSRA  (heavy rain associated with thunderstorm(s))

 MAPA DE AEROPUERTO

 INFORMACIÓN DE PISTA
Pista 3 Longitud 9088 ft Ancho 148 ft
Elevación 171 ft Umbral desplazado 0 ft Rumbo de pista 21
Pista 21 Longitud 9088 ft Ancho 148 ft
Elevación 174 ft Umbral desplazado 0 ft Rumbo de pista 201

 FRECUANCIAS DEL AEROPUERTO
Tipo ACC Nombre RESISTENCI Frecuencia 119.5 MHZ
Tipo RDO Nombre RDO Frecuencia 122.3 MHZ
Tipo TWR Nombre TWR/APP Frecuencia 118.7 MHZ

 RADIO AYUDAS DEL AEROPUERTO
Tipo VOR-DME Nombre Resistencia Frecuencia 115100 KHZ


© 2018   Charly Docampo  Arlat Virtual  Todos los Derechos Reservados    ajugar.com.ar
Powered by Virtual Airlines Manager [v2.6.2]